createdAt,value
2022-08-18T00:00:37.516Z,98210.34
2022-08-18T00:03:55.484Z,98219.91
2022-08-18T00:07:00.431Z,98215.34
2022-08-18T00:10:01.970Z,98209.09
2022-08-18T00:13:03.357Z,98204.84
2022-08-18T00:16:04.718Z,98208.47
2022-08-18T00:19:09.366Z,98204.41
2022-08-18T00:22:14.592Z,98204.25
2022-08-18T00:25:16.971Z,98201.59
2022-08-18T00:28:19.359Z,98198.34
2022-08-18T00:31:26.916Z,98197.34
2022-08-18T00:34:28.298Z,98192.75
2022-08-18T00:37:33.749Z,98191.66
2022-08-18T00:40:38.262Z,98198.78
2022-08-18T00:43:42.235Z,98195.22
2022-08-18T00:46:43.688Z,98179.03
2022-08-18T00:49:45.049Z,98195.06
2022-08-18T00:52:48.302Z,98200.44
2022-08-18T00:55:53.790Z,98194.44
2022-08-18T00:58:57.884Z,98195.28
2022-08-18T01:02:03.716Z,98190.91
2022-08-18T01:05:20.494Z,98206.09
2022-08-18T01:08:29.135Z,98204.34
2022-08-18T01:11:30.705Z,98202.44
2022-08-18T01:14:32.076Z,98209.50
2022-08-18T01:17:52.177Z,98202.59
2022-08-18T01:21:24.662Z,98202.72
2022-08-18T01:24:52.544Z,98197.59
2022-08-18T01:27:56.763Z,98200.97
2022-08-18T01:31:02.243Z,98201.78
2022-08-18T01:34:04.584Z,98195.44
2022-08-18T01:37:06.436Z,98194.69
2022-08-18T01:41:12.840Z,98193.88
2022-08-18T01:43:29.976Z,98187.16
2022-08-18T01:46:33.622Z,98184.28
2022-08-18T01:49:34.992Z,98181.81
2022-08-18T01:52:36.434Z,98181.06
2022-08-18T01:55:38.359Z,98175.66
2022-08-18T01:58:39.813Z,98180.78
2022-08-18T02:01:48.501Z,98185.00
2022-08-18T02:04:52.963Z,98194.63
2022-08-18T02:07:54.622Z,98182.66
2022-08-18T02:10:58.715Z,98185.88
2022-08-18T02:14:00.089Z,98177.78
2022-08-18T02:17:02.423Z,98176.88
2022-08-18T02:20:04.438Z,98171.72
2022-08-18T02:23:06.872Z,98167.34
2022-08-18T02:26:08.763Z,98180.50
2022-08-18T02:29:10.176Z,98179.56
2022-08-18T02:32:11.560Z,98161.00
2022-08-18T02:35:12.947Z,98163.66
2022-08-18T02:38:14.305Z,98154.72
2022-08-18T02:41:20.243Z,98148.63
2022-08-18T02:44:21.635Z,98156.59
2022-08-18T02:47:23.069Z,98153.09
2022-08-18T02:50:24.954Z,98149.78
2022-08-18T02:53:27.299Z,98137.53
2022-08-18T02:56:41.484Z,98142.81
2022-08-18T02:59:47.412Z,98133.25
2022-08-18T03:02:51.369Z,98138.00
2022-08-18T03:05:52.720Z,98132.75
2022-08-18T03:08:54.384Z,98126.59
2022-08-18T03:11:55.708Z,98126.47
2022-08-18T03:14:57.063Z,98115.81
2022-08-18T03:17:58.468Z,98116.69
2022-08-18T03:21:07.630Z,98116.69
2022-08-18T03:24:10.676Z,98106.06
2022-08-18T03:27:12.792Z,98101.69
2022-08-18T03:30:14.149Z,98102.59
2022-08-18T03:33:15.551Z,98102.88
2022-08-18T03:36:26.927Z,98095.16
2022-08-18T03:39:28.395Z,98087.44
2022-08-18T03:42:29.872Z,98090.28
2022-08-18T03:45:31.932Z,98096.34
2022-08-18T03:48:33.613Z,98091.09
2022-08-18T03:51:35.066Z,98088.38
2022-08-18T03:54:38.892Z,98094.31
2022-08-18T03:57:40.302Z,98104.94
2022-08-18T04:00:41.683Z,98097.19
2022-08-18T04:03:43.594Z,98096.16
2022-08-18T04:06:45.876Z,98094.31
2022-08-18T04:09:47.249Z,98090.06
2022-08-18T04:12:48.598Z,98099.69
2022-08-18T04:15:49.978Z,98102.59
2022-08-18T04:18:51.353Z,98104.09
2022-08-18T04:21:53.387Z,98102.22
2022-08-18T04:24:55.640Z,98112.66
2022-08-18T04:28:01.351Z,98104.75
2022-08-18T04:31:09.336Z,98110.66
2022-08-18T04:34:12.393Z,98116.91
2022-08-18T04:37:15.403Z,98124.84
2022-08-18T04:40:20.211Z,98130.94
2022-08-18T04:43:24.227Z,98133.53
2022-08-18T04:46:26.076Z,98141.41
2022-08-18T04:49:27.500Z,98146.00
2022-08-18T04:52:47.810Z,98150.25
2022-08-18T04:55:52.397Z,98151.34
2022-08-18T04:58:53.824Z,98164.00
2022-08-18T05:01:55.175Z,98162.38
2022-08-18T05:04:56.532Z,98174.28
2022-08-18T05:07:57.998Z,98172.28
2022-08-18T05:11:03.820Z,98174.06
2022-08-18T05:14:07.155Z,98174.06
2022-08-18T05:17:08.913Z,98154.81
2022-08-18T05:20:10.433Z,98150.41
2022-08-18T05:23:12.482Z,98145.09
2022-08-18T05:26:14.622Z,98151.28
2022-08-18T05:29:18.878Z,98145.19
2022-08-18T05:32:37.135Z,98140.19
2022-08-18T05:35:43.450Z,98134.53
2022-08-18T05:38:47.991Z,98133.69
2022-08-18T05:42:07.391Z,98143.53
2022-08-18T05:45:12.878Z,98130.28
2022-08-18T05:48:14.245Z,98126.69
2022-08-18T05:51:25.315Z,98121.34
2022-08-18T05:54:46.568Z,98122.13
2022-08-18T05:57:51.611Z,98123.81
2022-08-18T06:00:59.612Z,98115.06
2022-08-18T06:04:01.627Z,98117.72
2022-08-18T06:07:04.080Z,98115.22
2022-08-18T06:10:06.488Z,98120.34
2022-08-18T06:13:08.029Z,98120.88
2022-08-18T06:16:09.313Z,98131.31
2022-08-18T06:19:30.937Z,98137.31
2022-08-18T06:22:55.321Z,98142.72
2022-08-18T06:26:16.704Z,98148.09
2022-08-18T06:29:24.915Z,98158.25
2022-08-18T06:32:29.318Z,98157.53
2022-08-18T06:35:38.179Z,98166.06
2022-08-18T06:38:39.573Z,98176.34
2022-08-18T06:41:49.038Z,98179.72
2022-08-18T06:44:54.989Z,98182.22
2022-08-18T06:47:59.543Z,98186.47
2022-08-18T06:51:01.478Z,98188.88
2022-08-18T06:54:07.045Z,98192.19
2022-08-18T06:57:08.403Z,98182.41
2022-08-18T07:00:20.215Z,98190.13
2022-08-18T07:03:22.509Z,98198.91
2022-08-18T07:06:25.009Z,98201.28
2022-08-18T07:09:27.665Z,98207.41
2022-08-18T07:12:32.839Z,98200.31
2022-08-18T07:15:34.515Z,98195.66
2022-08-18T07:18:36.111Z,98201.75
2022-08-18T07:21:38.104Z,98206.34
2022-08-18T07:24:44.072Z,98222.00
2022-08-18T07:27:47.903Z,98209.69
2022-08-18T07:31:13.581Z,98200.66
2022-08-18T07:34:12.544Z,98204.28
2022-08-18T07:37:13.901Z,98200.06
2022-08-18T07:40:28.567Z,98186.31
2022-08-18T07:43:38.180Z,98191.81
2022-08-18T07:46:50.349Z,98186.19
2022-08-18T07:50:18.247Z,98186.13
2022-08-18T07:53:37.498Z,98178.44
2022-08-18T07:56:50.148Z,98173.25
2022-08-18T07:59:54.601Z,98186.28
2022-08-18T08:02:55.959Z,98202.50
2022-08-18T08:06:03.424Z,98203.00
2022-08-18T08:09:07.581Z,98207.72
2022-08-18T08:12:08.899Z,98215.91
2022-08-18T08:15:26.723Z,98212.63
2022-08-18T08:18:47.459Z,98217.72
2022-08-18T08:21:53.061Z,98219.63
2022-08-18T08:24:54.714Z,98218.97
2022-08-18T08:28:07.333Z,98190.06
2022-08-18T08:31:35.626Z,98198.69
2022-08-18T08:34:46.039Z,98228.00
2022-08-18T08:37:47.385Z,98233.16
2022-08-18T08:40:56.887Z,98219.94
2022-08-18T08:43:58.165Z,98197.38
2022-08-18T08:47:07.901Z,98185.88
2022-08-18T08:50:11.381Z,98186.13
2022-08-18T08:53:26.787Z,98183.03
2022-08-18T08:56:29.829Z,98163.66
2022-08-18T08:59:31.182Z,98150.00
2022-08-18T09:02:48.163Z,98157.13
2022-08-18T09:06:00.876Z,98170.97
2022-08-18T09:09:08.292Z,98179.34
2022-08-18T09:12:15.774Z,98162.88
2022-08-18T09:15:35.567Z,98178.78
2022-08-18T09:18:44.892Z,98182.38
2022-08-18T09:22:00.533Z,98180.97
2022-08-18T09:25:02.351Z,98184.56
2022-08-18T09:28:10.903Z,98199.81
2022-08-18T09:31:19.560Z,98206.09
2022-08-18T09:34:47.478Z,98218.63
2022-08-18T09:38:12.275Z,98221.63
2022-08-18T09:41:32.463Z,98217.84
2022-08-18T09:44:46.561Z,98218.13
2022-08-18T09:47:54.080Z,98216.63
2022-08-18T09:51:01.417Z,98223.44
2022-08-18T09:54:07.873Z,98216.16
2022-08-18T09:57:16.495Z,98207.91
2022-08-18T10:00:28.526Z,98214.03
2022-08-18T10:03:31.030Z,98192.69
2022-08-18T10:06:32.831Z,98187.41
2022-08-18T10:09:43.980Z,98167.28
2022-08-18T10:13:01.624Z,98162.78
2022-08-18T10:16:10.983Z,98152.22
2022-08-18T10:19:34.069Z,98155.03
2022-08-18T10:22:46.615Z,98144.72
2022-08-18T10:29:12.924Z,98132.50
2022-08-18T10:32:14.394Z,98141.22
2022-08-18T10:35:34.155Z,98148.63
2022-08-18T10:38:37.363Z,98140.88
2022-08-18T10:41:47.096Z,98127.94
2022-08-18T10:44:48.692Z,98123.75
2022-08-18T10:47:59.087Z,98118.66
2022-08-18T10:51:01.057Z,98134.97
2022-08-18T10:54:02.355Z,98132.19
2022-08-18T10:57:13.156Z,98133.38
2022-08-18T11:00:20.185Z,98140.03
2022-08-18T11:03:50.674Z,98141.09
2022-08-18T11:06:43.971Z,98150.69
2022-08-18T11:09:57.129Z,98145.53
2022-08-18T11:13:03.085Z,98141.31
2022-08-18T11:16:13.382Z,98141.66
2022-08-18T11:19:16.828Z,98127.63
2022-08-18T11:22:31.132Z,98122.16
2022-08-18T11:25:35.319Z,98121.31
2022-08-18T11:28:40.740Z,98117.22
2022-08-18T11:31:52.826Z,98130.22
2022-08-18T11:34:57.930Z,98120.91
2022-08-18T11:38:00.289Z,98119.94
2022-08-18T11:41:13.777Z,98109.47
2022-08-18T11:44:18.302Z,98105.72
2022-08-18T11:47:27.570Z,98103.25
2022-08-18T11:50:30.832Z,98106.84
2022-08-18T11:53:33.265Z,98103.84
2022-08-18T11:56:38.091Z,98098.34
2022-08-18T11:59:54.813Z,98098.28
2022-08-18T12:03:28.414Z,98098.34
2022-08-18T12:06:30.679Z,98090.84
2022-08-18T12:12:59.691Z,98097.91
2022-08-18T12:16:09.614Z,98107.44
2022-08-18T12:19:12.429Z,98110.94
2022-08-18T12:22:20.870Z,98109.94
2022-08-18T12:25:24.653Z,98120.38
2022-08-18T12:28:28.396Z,98113.38
2022-08-18T12:31:42.632Z,98110.44
2022-08-18T12:34:49.557Z,98106.03
2022-08-18T12:38:11.177Z,98107.41
2022-08-18T12:41:19.870Z,98097.59
2022-08-18T12:44:27.118Z,98099.81
2022-08-18T12:47:31.325Z,98099.38
2022-08-18T12:50:37.836Z,98098.53
2022-08-18T12:53:58.368Z,98091.88
2022-08-18T12:57:01.761Z,98089.94
2022-08-18T13:00:04.255Z,98090.59
2022-08-18T13:03:05.656Z,98085.84
2022-08-18T13:06:07.090Z,98079.06
2022-08-18T13:09:33.979Z,98078.16
2022-08-18T13:12:30.779Z,98068.09
2022-08-18T13:15:33.381Z,98069.03
2022-08-18T13:18:35.331Z,98065.69
2022-08-18T13:21:40.841Z,98057.06
2022-08-18T13:24:42.908Z,98056.00
2022-08-18T13:27:45.296Z,98054.16
2022-08-18T13:30:46.754Z,98052.75
2022-08-18T13:33:57.050Z,98046.44
2022-08-18T13:37:01.326Z,98052.22
2022-08-18T13:40:04.122Z,98045.50
2022-08-18T13:43:09.218Z,98041.63
2022-08-18T13:46:11.406Z,98050.66
2022-08-18T13:49:13.350Z,98060.78
2022-08-18T13:52:33.515Z,98060.56
2022-08-18T13:55:36.931Z,98063.44
2022-08-18T13:58:38.501Z,98054.31
2022-08-18T14:01:55.019Z,98061.72
2022-08-18T14:04:57.787Z,98059.63
2022-08-18T14:07:59.532Z,98056.66
2022-08-18T14:11:01.224Z,98064.63
2022-08-18T14:14:02.652Z,98061.88
2022-08-18T14:17:04.075Z,98064.75
2022-08-18T14:20:27.763Z,98068.22
2022-08-18T14:23:53.142Z,98065.25
2022-08-18T14:26:54.800Z,98071.81
2022-08-18T14:30:01.340Z,98070.25
2022-08-18T14:33:04.904Z,98064.63
2022-08-18T14:36:09.846Z,98070.25
2022-08-18T14:39:11.478Z,98068.75
2022-08-18T14:42:14.361Z,98067.66
2022-08-18T14:45:17.896Z,98067.25
2022-08-18T14:48:29.475Z,98070.69
2022-08-18T14:51:31.178Z,98068.13
2022-08-18T14:54:34.863Z,98070.91
2022-08-18T14:57:37.213Z,98071.78
2022-08-18T15:00:53.285Z,98066.56
2022-08-18T15:03:56.116Z,98075.22
2022-08-18T15:06:57.852Z,98066.41
2022-08-18T15:10:14.924Z,98069.91
2022-08-18T15:13:18.122Z,98077.53
2022-08-18T15:16:19.605Z,98073.03
2022-08-18T15:19:58.335Z,98067.50
2022-08-18T15:23:03.076Z,98077.97
2022-08-18T15:26:05.649Z,98071.56
2022-08-18T15:29:10.746Z,98080.63
2022-08-18T15:32:16.913Z,98086.47
2022-08-18T15:35:19.414Z,98085.13
2022-08-18T15:38:21.489Z,98089.44
2022-08-18T15:41:35.682Z,98088.88
2022-08-18T15:44:47.236Z,98093.78
2022-08-18T15:47:54.683Z,98097.25
2022-08-18T15:51:11.703Z,98091.22
2022-08-18T15:54:13.668Z,98093.31
2022-08-18T15:57:39.851Z,98085.75
2022-08-18T16:00:38.333Z,98082.94
2022-08-18T16:03:39.733Z,98079.53
2022-08-18T16:06:45.154Z,98074.75
2022-08-18T16:09:47.070Z,98075.84
2022-08-18T16:12:48.492Z,98080.28
2022-08-18T16:15:50.299Z,98085.53
2022-08-18T16:18:51.987Z,98082.50
2022-08-18T16:21:54.659Z,98070.09
2022-08-18T16:24:56.024Z,98066.50
2022-08-18T16:28:00.423Z,98065.66
2022-08-18T16:31:02.446Z,98063.00
2022-08-18T16:34:03.855Z,98067.44
2022-08-18T16:37:05.247Z,98060.47
2022-08-18T16:40:08.216Z,98061.31
2022-08-18T16:43:10.490Z,98058.88
2022-08-18T16:46:12.660Z,98056.22
2022-08-18T16:49:14.792Z,98064.59
2022-08-18T16:52:16.289Z,98064.53
2022-08-18T16:55:19.428Z,98053.13
2022-08-18T16:58:39.479Z,98062.34
2022-08-18T17:01:59.624Z,98067.13
2022-08-18T17:05:02.645Z,98060.88
2022-08-18T17:08:04.002Z,98056.88
2022-08-18T17:11:05.779Z,98060.47
2022-08-18T17:14:07.599Z,98061.31
2022-08-18T17:17:08.982Z,98059.91
2022-08-18T17:20:11.042Z,98058.47
2022-08-18T17:23:12.878Z,98061.25
2022-08-18T17:26:20.475Z,98061.50
2022-08-18T17:29:34.264Z,98049.34
2022-08-18T17:32:46.839Z,98051.50
2022-08-18T17:35:48.209Z,98047.84
2022-08-18T17:38:51.788Z,98051.81
2022-08-18T17:42:11.931Z,98048.31
2022-08-18T17:45:21.594Z,98050.53
2022-08-18T17:48:35.050Z,98054.97
2022-08-18T17:51:46.536Z,98047.88
2022-08-18T17:54:51.055Z,98039.94
2022-08-18T17:58:01.610Z,98044.66
2022-08-18T18:01:04.190Z,98044.66
2022-08-18T18:04:05.539Z,98047.69
2022-08-18T18:07:07.618Z,98054.00
2022-08-18T18:10:10.708Z,98055.72
2022-08-18T18:13:13.567Z,98047.81
2022-08-18T18:16:21.088Z,98046.19
2022-08-18T18:19:23.529Z,98047.19
2022-08-18T18:22:26.516Z,98053.44
2022-08-18T18:25:34.939Z,98045.31
2022-08-18T18:28:37.591Z,98056.16
2022-08-18T18:31:39.735Z,98061.09
2022-08-18T18:34:44.538Z,98058.53
2022-08-18T18:37:47.264Z,98059.84
2022-08-18T18:41:21.412Z,98055.31
2022-08-18T18:44:26.799Z,98059.25
2022-08-18T18:47:33.023Z,98057.59
2022-08-18T18:50:55.892Z,98053.22
2022-08-18T18:54:06.154Z,98058.41
2022-08-18T18:57:12.568Z,98055.66
2022-08-18T19:00:19.771Z,98052.97
2022-08-18T19:03:40.859Z,98062.63
2022-08-18T19:06:46.947Z,98061.03
2022-08-18T19:09:54.087Z,98058.19
2022-08-18T19:12:57.238Z,98045.28
2022-08-18T19:15:59.537Z,98053.94
2022-08-18T19:19:35.371Z,98053.81
2022-08-18T19:22:54.506Z,98058.47
2022-08-18T19:25:56.340Z,98056.09
2022-08-18T19:29:13.318Z,98045.59
2022-08-18T19:32:20.273Z,98050.75
2022-08-18T19:35:35.318Z,98061.34
2022-08-18T19:38:46.415Z,98053.66
2022-08-18T19:41:51.027Z,98057.50
2022-08-18T19:45:17.230Z,98062.16
2022-08-18T19:48:19.535Z,98070.91
2022-08-18T19:51:27.077Z,98071.91
2022-08-18T19:54:48.511Z,98068.25
2022-08-18T19:57:54.057Z,98066.81
2022-08-18T20:00:57.464Z,98073.75
2022-08-18T20:04:02.722Z,98075.59
2022-08-18T20:07:04.406Z,98075.59
2022-08-18T20:10:06.020Z,98081.84
2022-08-18T20:13:14.293Z,98086.19
2022-08-18T20:16:24.973Z,98087.97
2022-08-18T20:19:39.580Z,98089.69
2022-08-18T20:22:44.444Z,98095.31
2022-08-18T20:25:46.976Z,98097.19
2022-08-18T20:28:48.332Z,98090.22
2022-08-18T20:31:49.733Z,98102.56
2022-08-18T20:34:51.552Z,98108.53
2022-08-18T20:37:53.313Z,98108.63
2022-08-18T20:40:55.374Z,98105.13
2022-08-18T20:43:59.819Z,98100.91
2022-08-18T20:47:04.250Z,98101.34
2022-08-18T20:50:26.338Z,98102.97
2022-08-18T20:53:49.876Z,98098.72
2022-08-18T20:56:53.392Z,98096.91
2022-08-18T21:00:02.075Z,98096.06
2022-08-18T21:03:07.411Z,98090.25
2022-08-18T21:06:08.812Z,98098.19
2022-08-18T21:09:10.530Z,98112.19
2022-08-18T21:12:14.630Z,98106.88
2022-08-18T21:15:16.109Z,98120.97
2022-08-18T21:18:18.120Z,98121.97
2022-08-18T21:21:26.849Z,98115.84
2022-08-18T21:24:34.558Z,98120.41
2022-08-18T21:27:36.098Z,98115.31
2022-08-18T21:30:38.002Z,98121.69
2022-08-18T21:33:39.778Z,98124.41
2022-08-18T21:36:53.970Z,98114.69
2022-08-18T21:39:56.556Z,98127.72
2022-08-18T21:42:59.455Z,98122.50
2022-08-18T21:46:00.820Z,98123.47
2022-08-18T21:49:02.516Z,98128.72
2022-08-18T21:52:04.027Z,98136.78
2022-08-18T21:55:07.369Z,98143.91
2022-08-18T21:58:14.298Z,98135.25
2022-08-18T22:01:18.893Z,98128.19
2022-08-18T22:04:29.360Z,98121.22
2022-08-18T22:07:35.280Z,98112.16
2022-08-18T22:10:58.614Z,98116.47
2022-08-18T22:14:21.069Z,98120.09
2022-08-18T22:17:25.421Z,98140.47
2022-08-18T22:20:32.773Z,98156.44
2022-08-18T22:23:58.830Z,98147.78
2022-08-18T22:27:06.906Z,98149.97
2022-08-18T22:30:08.422Z,98162.38
2022-08-18T22:33:09.762Z,98158.28
2022-08-18T22:36:11.462Z,98152.91
2022-08-18T22:39:13.301Z,98151.94
2022-08-18T22:42:15.522Z,98157.97
2022-08-18T22:45:16.856Z,98162.25
2022-08-18T22:48:18.220Z,98153.41
2022-08-18T22:51:20.731Z,98150.78
2022-08-18T22:54:22.303Z,98158.69
2022-08-18T22:57:23.824Z,98150.81
2022-08-18T23:00:25.496Z,98152.53
2022-08-18T23:03:27.040Z,98150.81
2022-08-18T23:06:31.045Z,98145.66
2022-08-18T23:09:33.206Z,98138.72
2022-08-18T23:12:34.580Z,98136.09
2022-08-18T23:15:48.144Z,98137.88
2022-08-18T23:18:49.695Z,98137.88
2022-08-18T23:21:52.188Z,98139.66
2022-08-18T23:24:53.525Z,98140.56
2022-08-18T23:27:55.352Z,98150.34
2022-08-18T23:30:56.771Z,98150.47
2022-08-18T23:33:58.879Z,98154.88
2022-08-18T23:37:03.527Z,98158.53
2022-08-18T23:40:05.198Z,98161.19
2022-08-18T23:43:09.558Z,98157.66
2022-08-18T23:46:17.995Z,98155.16
2022-08-18T23:49:19.515Z,98154.28
2022-08-18T23:52:21.413Z,98148.19
2022-08-18T23:55:22.768Z,98155.25
2022-08-18T23:58:24.193Z,98155.19
